Time;durP1;ratioP1;P1;durP2;ratioP2;P2;SDS_P1;SDS_P2;PMS_P1;PMS_P2;Temp;Humidity;BMP_temperature;BMP_pressure;BME280_temperature;BME280_humidity;BME280_pressure;Samples;Min_cycle;Max_cycle;Signal;HPM_P1;HPM_P2
2023/01/21 00:00:49;;;;;;;22.50;10.45;;;0.60;90.90;;;;;;5040742;28;20045;-80
2023/01/21 00:03:15;;;;;;;22.70;10.90;;;0.60;90.90;;;;;;5037470;28;20112;-79
2023/01/21 00:05:40;;;;;;;19.60;10.15;;;0.50;90.80;;;;;;5057445;28;20036;-79
2023/01/21 00:08:06;;;;;;;21.88;9.93;;;0.50;90.90;;;;;;5046367;28;20068;-78
2023/01/21 00:10:32;;;;;;;17.73;9.13;;;0.50;90.90;;;;;;5020167;28;20048;-80
2023/01/21 00:12:57;;;;;;;14.93;8.30;;;0.50;90.90;;;;;;5047610;28;20044;-80
2023/01/21 00:15:23;;;;;;;19.23;9.35;;;0.50;90.90;;;;;;5030007;28;20049;-80
2023/01/21 00:17:51;;;;;;;16.77;8.88;;;0.50;90.90;;;;;;5031404;28;20197;-81
2023/01/21 00:20:17;;;;;;;16.83;9.30;;;0.60;90.90;;;;;;5036882;28;20443;-80
2023/01/21 00:22:43;;;;;;;22.10;10.38;;;0.60;90.90;;;;;;5050953;28;20231;-79
2023/01/21 00:25:09;;;;;;;15.00;8.85;;;0.60;90.90;;;;;;5049196;28;20266;-77
2023/01/21 00:27:34;;;;;;;17.15;8.95;;;0.60;90.90;;;;;;5049545;28;20044;-80
2023/01/21 00:30:00;;;;;;;18.77;9.18;;;0.60;90.90;;;;;;5044433;28;20284;-78
2023/01/21 00:32:25;;;;;;;17.77;9.45;;;0.60;91.00;;;;;;5047611;28;20065;-79
2023/01/21 00:34:51;;;;;;;15.63;8.25;;;0.60;91.00;;;;;;5048002;28;20045;-80
2023/01/21 00:37:16;;;;;;;15.38;8.57;;;0.70;91.00;;;;;;5053154;28;20090;-78
2023/01/21 00:39:42;;;;;;;16.80;8.82;;;0.70;91.00;;;;;;5052114;28;20029;-80
2023/01/21 00:42:10;;;;;;;17.08;8.93;;;0.70;91.00;;;;;;5024337;28;20834;-79
2023/01/21 00:44:37;;;;;;;14.90;7.97;;;0.60;90.90;;;;;;5051337;28;20037;-78
2023/01/21 00:47:04;;;;;;;14.70;8.02;;;0.60;90.90;;;;;;5046103;28;20067;-78
2023/01/21 00:49:29;;;;;;;13.13;7.90;;;0.60;90.90;;;;;;5053199;28;20144;-78
2023/01/21 00:51:55;;;;;;;12.63;7.00;;;0.60;90.90;;;;;;5048077;28;20060;-79
2023/01/21 00:54:20;;;;;;;12.43;7.75;;;0.60;90.90;;;;;;5020500;28;20392;-79
2023/01/21 00:56:46;;;;;;;15.45;7.80;;;0.60;90.90;;;;;;5061649;28;20037;-80
2023/01/21 00:59:12;;;;;;;12.43;7.43;;;0.60;90.90;;;;;;5049823;28;20631;-79
2023/01/21 01:01:37;;;;;;;13.32;7.70;;;0.50;90.80;;;;;;5046832;28;20037;-78
2023/01/21 01:04:04;;;;;;;14.85;7.78;;;0.50;90.90;;;;;;5051539;28;20545;-79
2023/01/21 01:06:30;;;;;;;17.20;8.82;;;0.50;90.80;;;;;;5051761;28;20057;-79
2023/01/21 01:08:57;;;;;;;15.35;8.52;;;0.40;90.80;;;;;;5052950;28;20052;-79
2023/01/21 01:11:25;;;;;;;17.00;8.45;;;0.40;90.80;;;;;;5048542;28;20029;-78
2023/01/21 01:13:51;;;;;;;17.60;8.73;;;0.40;90.80;;;;;;5036686;28;20052;-79
2023/01/21 01:16:17;;;;;;;15.73;7.97;;;0.40;90.80;;;;;;5051521;28;20360;-79
2023/01/21 01:18:42;;;;;;;15.38;8.60;;;0.40;90.80;;;;;;5059083;28;20049;-77
2023/01/21 01:21:13;;;;;;;17.83;8.70;;;0.30;90.70;;;;;;5050624;28;20112;-78
2023/01/21 01:23:38;;;;;;;16.05;8.52;;;0.30;90.80;;;;;;5038443;28;20841;-79
2023/01/21 01:26:05;;;;;;;16.15;8.45;;;0.30;90.80;;;;;;5056250;28;20068;-79
2023/01/21 01:28:31;;;;;;;17.90;8.70;;;0.30;90.90;;;;;;5051597;28;20894;-79
2023/01/21 01:30:57;;;;;;;15.02;7.82;;;0.30;90.90;;;;;;5051739;28;20062;-79
2023/01/21 01:33:23;;;;;;;15.25;8.02;;;0.30;90.90;;;;;;5051237;28;20037;-80
2023/01/21 01:35:48;;;;;;;13.85;7.93;;;0.30;90.90;;;;;;5052963;28;20033;-78
2023/01/21 01:38:15;;;;;;;14.25;8.07;;;0.30;90.90;;;;;;5037051;28;20426;-79
2023/01/21 01:40:41;;;;;;;14.63;8.07;;;0.30;91.20;;;;;;5051518;28;20048;-79
2023/01/21 01:43:14;;;;;;;16.35;8.10;;;0.30;90.90;;;;;;5054561;28;20041;-80
2023/01/21 01:45:40;;;;;;;16.30;8.48;;;0.40;90.90;;;;;;5059070;28;20053;-80
2023/01/21 01:48:06;;;;;;;16.02;8.52;;;0.40;90.90;;;;;;5050583;28;20155;-79
2023/01/21 01:50:33;;;;;;;16.02;8.70;;;0.40;90.90;;;;;;5050242;28;20050;-80
2023/01/21 01:52:59;;;;;;;13.60;8.13;;;0.40;90.90;;;;;;5047703;28;20033;-79
2023/01/21 01:55:25;;;;;;;18.27;8.95;;;0.40;90.80;;;;;;5050437;28;20475;-78
2023/01/21 01:57:52;;;;;;;17.13;9.05;;;0.40;90.90;;;;;;5039006;28;20037;-79
2023/01/21 02:00:18;;;;;;;15.60;7.90;;;0.40;90.90;;;;;;5032288;28;20040;-80
2023/01/21 02:03:43;;;;;;;15.27;8.30;;;0.40;90.90;;;;;;5055807;28;20041;-80
2023/01/21 02:05:29;;;;;;;15.82;8.00;;;0.40;90.90;;;;;;5052416;28;20033;-80
2023/01/21 02:07:55;;;;;;;17.27;8.73;;;0.40;90.90;;;;;;5049610;28;20036;-79
2023/01/21 02:10:21;;;;;;;15.38;8.15;;;0.40;90.80;;;;;;5015023;28;20056;-81
2023/01/21 02:12:46;;;;;;;15.07;7.88;;;0.40;90.80;;;;;;5038365;28;20041;-79
2023/01/21 02:15:12;;;;;;;16.77;8.02;;;0.40;90.80;;;;;;5052636;28;20071;-80
2023/01/21 02:17:37;;;;;;;16.55;8.07;;;0.40;90.80;;;;;;5024937;28;20044;-80
2023/01/21 02:20:32;;;;;;;15.68;7.85;;;0.40;90.80;;;;;;5049352;28;20033;-79
2023/01/21 02:23:03;;;;;;;14.75;8.13;;;0.40;90.80;;;;;;5052241;28;20164;-79
2023/01/21 02:25:53;;;;;;;15.73;7.65;;;0.50;90.90;;;;;;5056431;28;20045;-80
2023/01/21 02:28:33;;;;;;;14.25;7.57;;;0.50;90.90;;;;;;5050568;28;20274;-78
2023/01/21 02:31:14;;;;;;;17.20;7.88;;;0.50;90.90;;;;;;5048023;28;20049;-78
2023/01/21 02:34:24;;;;;;;15.77;7.78;;;0.50;90.90;;;;;;5030125;28;20141;-82
2023/01/21 02:37:14;;;;;;;17.17;8.07;;;0.50;90.90;;;;;;5055542;28;20033;-79
2023/01/21 02:39:42;;;;;;;19.70;8.82;;;0.50;90.80;;;;;;5062563;28;20041;-78
2023/01/21 02:42:19;;;;;;;18.05;7.63;;;0.50;90.80;;;;;;5051734;28;20041;-79
2023/01/21 02:45:02;;;;;;;17.40;8.48;;;0.40;90.80;;;;;;5054337;28;20062;-77
2023/01/21 02:47:39;;;;;;;16.60;7.85;;;0.40;90.80;;;;;;5038891;28;20041;-79
2023/01/21 02:50:10;;;;;;;15.48;7.93;;;0.40;90.80;;;;;;5048998;28;20049;-79
2023/01/21 02:52:36;;;;;;;16.52;7.82;;;0.40;90.80;;;;;;5032925;28;20572;-79
2023/01/21 02:55:02;;;;;;;16.13;8.23;;;0.50;90.80;;;;;;5035793;28;20115;-79
2023/01/21 02:57:49;;;;;;;13.38;6.88;;;0.50;90.80;;;;;;5025981;28;20539;-78
2023/01/21 03:00:17;;;;;;;16.20;7.43;;;0.50;90.80;;;;;;5043261;28;20040;-80
2023/01/21 03:02:55;;;;;;;15.63;8.27;;;0.50;90.80;;;;;;5043408;28;20028;-78
2023/01/21 03:05:27;;;;;;;16.17;8.63;;;0.50;90.80;;;;;;5045883;28;20115;-79
2023/01/21 03:08:05;;;;;;;17.48;8.13;;;0.40;90.70;;;;;;5049497;28;20958;-77
2023/01/21 03:10:38;;;;;;;12.98;7.55;;;0.40;90.70;;;;;;5049045;28;20048;-78
2023/01/21 03:13:12;;;;;;;17.27;8.10;;;0.40;90.70;;;;;;5048506;28;20115;-80
2023/01/21 03:18:42;;;;;;;15.55;8.30;;;0.30;90.70;;;;;;5053834;28;20044;-80
2023/01/21 03:21:10;;;;;;;17.65;9.07;;;0.30;90.70;;;;;;5028182;28;20083;-78
2023/01/21 03:23:37;;;;;;;17.83;8.05;;;0.30;90.70;;;;;;5029504;28;22338;-79
2023/01/21 03:26:03;;;;;;;14.70;7.32;;;0.30;90.70;;;;;;5048581;28;20029;-79
2023/01/21 03:28:31;;;;;;;14.27;7.40;;;0.20;90.60;;;;;;5047516;28;20048;-79
2023/01/21 03:31:02;;;;;;;14.40;7.65;;;0.20;90.60;;;;;;5029074;28;20575;-78
2023/01/21 03:33:27;;;;;;;14.75;7.78;;;0.20;90.60;;;;;;5047338;28;20100;-78
2023/01/21 03:35:53;;;;;;;12.95;6.68;;;0.10;90.60;;;;;;5050345;28;20036;-79
2023/01/21 03:38:30;;;;;;;12.18;6.57;;;0.10;90.60;;;;;;5049665;28;20033;-80
2023/01/21 03:41:07;;;;;;;14.57;6.80;;;0.10;90.60;;;;;;5018962;28;20037;-78
2023/01/21 03:43:33;;;;;;;12.63;6.55;;;0.10;90.60;;;;;;5047455;28;20037;-79
2023/01/21 03:46:15;;;;;;;15.00;6.88;;;0.10;90.60;;;;;;5050324;28;20094;-79
2023/01/21 03:49:21;;;;;;;16.05;7.18;;;0.00;90.60;;;;;;5049913;28;20025;-79
2023/01/21 03:51:51;;;;;;;12.77;6.43;;;0.00;90.60;;;;;;4950551;28;20036;-79
2023/01/21 03:54:17;;;;;;;10.23;6.63;;;0.00;90.60;;;;;;4950105;28;20030;-80
2023/01/21 03:56:43;;;;;;;12.25;6.68;;;0.00;90.60;;;;;;4954087;28;20301;-80
2023/01/21 03:59:08;;;;;;;10.90;6.30;;;0.00;90.60;;;;;;4961012;28;20055;-78
2023/01/21 04:01:34;;;;;;;15.30;7.15;;;-0.10;90.50;;;;;;4949447;28;20078;-79
2023/01/21 04:03:59;;;;;;;13.73;7.20;;;-0.20;90.50;;;;;;4961682;28;20065;-79
2023/01/21 04:06:25;;;;;;;16.38;7.47;;;-0.20;90.40;;;;;;4961484;28;20045;-79
2023/01/21 04:08:50;;;;;;;11.70;6.28;;;-0.30;90.40;;;;;;4924464;28;20609;-77
2023/01/21 04:11:16;;;;;;;13.52;6.50;;;-0.30;90.40;;;;;;4930481;28;20072;-79
2023/01/21 04:13:42;;;;;;;11.25;6.50;;;-0.40;90.40;;;;;;4925436;28;20046;-78
2023/01/21 04:16:07;;;;;;;12.35;6.07;;;-0.40;90.40;;;;;;4945889;28;20106;-79
2023/01/21 04:18:33;;;;;;;11.40;6.85;;;-0.40;90.40;;;;;;4969306;28;20039;-79
2023/01/21 04:20:58;;;;;;;13.20;7.07;;;-0.40;90.50;;;;;;4949806;28;20089;-79
2023/01/21 04:23:24;;;;;;;13.30;7.03;;;-0.50;90.50;;;;;;5033359;28;20037;-79
2023/01/21 04:25:50;;;;;;;12.02;6.28;;;-0.50;90.40;;;;;;5049344;28;20079;-79
2023/01/21 04:28:15;;;;;;;13.95;7.22;;;-0.60;90.40;;;;;;5041411;28;20048;-79
2023/01/21 04:30:41;;;;;;;13.35;7.22;;;-0.60;90.40;;;;;;5035005;28;20120;-79
2023/01/21 04:33:07;;;;;;;13.30;7.15;;;-0.60;90.40;;;;;;5048236;28;20033;-77
2023/01/21 04:35:34;;;;;;;14.00;6.90;;;-0.70;90.40;;;;;;5029692;28;20037;-79
2023/01/21 04:38:00;;;;;;;11.80;6.53;;;-0.80;90.30;;;;;;5028903;28;20033;-79
2023/01/21 04:40:25;;;;;;;11.95;6.82;;;-0.80;90.30;;;;;;5046101;28;20046;-79
2023/01/21 04:42:51;;;;;;;12.05;6.20;;;-0.80;90.40;;;;;;5048383;28;20043;-79
2023/01/21 04:45:16;;;;;;;14.63;6.30;;;-0.80;90.40;;;;;;5046384;28;20120;-79
2023/01/21 04:47:42;;;;;;;11.70;6.72;;;-0.80;90.40;;;;;;5044940;28;20064;-79
2023/01/21 04:50:09;;;;;;;17.20;7.22;;;-0.80;90.40;;;;;;5037778;28;20041;-80
2023/01/21 04:52:34;;;;;;;14.18;6.72;;;-0.90;90.40;;;;;;5048536;28;20067;-80
2023/01/21 04:55:00;;;;;;;12.63;6.45;;;-0.90;90.40;;;;;;5048538;28;20040;-79
2023/01/21 04:57:25;;;;;;;14.18;7.43;;;-0.90;90.50;;;;;;5047385;28;20751;-80
2023/01/21 04:59:51;;;;;;;12.52;6.93;;;-0.90;90.50;;;;;;5046637;28;20788;-79
2023/01/21 05:02:16;;;;;;;14.25;6.85;;;-0.90;90.60;;;;;;5043867;28;20580;-78
2023/01/21 05:04:42;;;;;;;11.77;6.60;;;-0.90;90.50;;;;;;5052521;28;20101;-79
2023/01/21 05:07:08;;;;;;;14.07;6.95;;;-0.90;90.50;;;;;;5051192;28;20104;-79
2023/01/21 05:09:33;;;;;;;13.35;6.22;;;-0.90;90.50;;;;;;5040045;28;20033;-79
2023/01/21 05:11:59;;;;;;;14.90;6.55;;;-0.90;90.50;;;;;;5049297;28;20045;-79
2023/01/21 05:14:24;;;;;;;13.07;6.13;;;-1.00;90.70;;;;;;5047260;28;20040;-80
2023/01/21 05:16:50;;;;;;;14.45;6.57;;;-1.00;90.40;;;;;;5045934;28;20365;-79
2023/01/21 05:19:15;;;;;;;15.10;7.90;;;-1.10;90.40;;;;;;5031192;28;20056;-80
2023/01/21 05:21:41;;;;;;;14.35;6.97;;;-1.10;90.40;;;;;;5026808;28;20060;-80
2023/01/21 05:24:07;;;;;;;14.95;7.97;;;-1.00;90.50;;;;;;5028194;28;20111;-79
2023/01/21 05:26:32;;;;;;;12.50;6.93;;;-1.10;90.50;;;;;;5040995;28;20760;-79
2023/01/21 05:28:58;;;;;;;12.45;6.40;;;-1.00;90.60;;;;;;5042101;28;20063;-79
2023/01/21 05:31:23;;;;;;;15.70;7.25;;;-1.10;90.50;;;;;;5026629;28;20033;-79
2023/01/21 05:33:49;;;;;;;14.15;6.53;;;-1.10;90.60;;;;;;5035800;28;20039;-79
2023/01/21 05:36:15;;;;;;;11.43;6.10;;;-1.00;90.60;;;;;;5026366;28;20249;-79
2023/01/21 05:38:40;;;;;;;14.48;6.88;;;-1.10;90.50;;;;;;5025503;28;20025;-79
2023/01/21 05:41:06;;;;;;;12.13;6.75;;;-1.10;90.60;;;;;;5023655;28;20032;-79
2023/01/21 05:43:31;;;;;;;15.45;7.35;;;-1.10;90.60;;;;;;5039032;28;20040;-79
2023/01/21 05:45:57;;;;;;;11.10;6.65;;;-1.10;90.90;;;;;;5035179;28;20090;-79
2023/01/21 05:48:22;;;;;;;14.18;6.30;;;-1.10;90.60;;;;;;5038265;28;20108;-78
2023/01/21 05:50:48;;;;;;;13.93;7.30;;;-1.20;90.50;;;;;;5042225;28;20040;-79
2023/01/21 05:53:14;;;;;;;15.20;7.53;;;-1.20;90.50;;;;;;5024512;28;20093;-79
2023/01/21 05:55:40;;;;;;;14.00;7.30;;;-1.20;90.50;;;;;;5046608;28;20032;-80
2023/01/21 05:58:06;;;;;;;13.07;6.88;;;-1.30;90.40;;;;;;5045979;28;20041;-78
2023/01/21 06:00:31;;;;;;;15.15;6.70;;;-1.30;90.50;;;;;;5017765;28;20043;-78
2023/01/21 06:02:59;;;;;;;13.25;6.55;;;-1.30;90.50;;;;;;5043720;28;20028;-78
2023/01/21 06:05:25;;;;;;;13.80;6.97;;;-1.30;90.50;;;;;;5054507;28;20037;-79
2023/01/21 06:07:50;;;;;;;13.70;7.18;;;-1.30;90.50;;;;;;5042043;28;20512;-79
2023/01/21 06:10:16;;;;;;;13.75;7.55;;;-1.30;90.60;;;;;;5028905;28;20029;-79
2023/01/21 06:12:41;;;;;;;15.38;7.47;;;-1.30;90.60;;;;;;5040880;28;20037;-79
2023/01/21 06:15:07;;;;;;;14.52;7.45;;;-1.30;90.60;;;;;;5043260;28;20128;-79
2023/01/21 06:17:33;;;;;;;13.38;7.13;;;-1.30;90.60;;;;;;5045222;28;20132;-81
2023/01/21 06:19:58;;;;;;;15.43;7.35;;;-1.30;90.60;;;;;;5044313;28;20064;-80
2023/01/21 06:22:24;;;;;;;17.48;7.57;;;-1.40;90.50;;;;;;5026247;28;20059;-78
2023/01/21 06:24:49;;;;;;;13.55;7.78;;;-1.40;90.50;;;;;;5027784;28;20556;-81
2023/01/21 06:27:15;;;;;;;17.58;7.78;;;-1.40;90.50;;;;;;5030395;28;20118;-79
2023/01/21 06:29:40;;;;;;;17.20;7.63;;;-1.40;90.90;;;;;;5044530;28;20044;-79
2023/01/21 06:32:06;;;;;;;15.43;8.25;;;-1.50;90.50;;;;;;5034257;28;20515;-79
2023/01/21 06:34:32;;;;;;;14.85;7.38;;;-1.40;90.60;;;;;;5018848;28;21015;-77
2023/01/21 06:36:57;;;;;;;15.93;7.35;;;-1.40;90.60;;;;;;5027739;28;20557;-78
2023/01/21 06:39:23;;;;;;;16.77;7.82;;;-1.40;90.60;;;;;;5023768;28;20033;-81
2023/01/21 06:41:48;;;;;;;16.15;8.02;;;-1.40;90.60;;;;;;5026064;28;20038;-79
2023/01/21 06:44:14;;;;;;;15.45;7.70;;;-1.40;90.70;;;;;;5041406;28;20336;-78
2023/01/21 06:46:39;;;;;;;16.10;7.72;;;-1.40;90.70;;;;;;5022553;28;20033;-78
2023/01/21 06:49:05;;;;;;;16.20;7.85;;;-1.40;90.60;;;;;;5026003;28;20029;-79
2023/01/21 06:51:30;;;;;;;15.25;7.20;;;-1.40;90.70;;;;;;5007158;28;20041;-79
2023/01/21 06:53:56;;;;;;;15.77;7.82;;;-1.40;90.60;;;;;;5024554;28;20104;-77
2023/01/21 06:56:21;;;;;;;15.43;7.03;;;-1.40;90.60;;;;;;5026447;28;20032;-80
2023/01/21 06:58:47;;;;;;;16.10;7.35;;;-1.40;90.70;;;;;;5038953;28;20029;-79
2023/01/21 07:01:12;;;;;;;14.63;6.93;;;-1.30;90.70;;;;;;5004505;28;20591;-78
2023/01/21 07:03:38;;;;;;;15.43;7.43;;;-1.40;90.70;;;;;;5019608;28;20033;-79
2023/01/21 07:06:04;;;;;;;17.83;8.18;;;-1.40;90.70;;;;;;5021044;28;20041;-78
2023/01/21 07:08:29;;;;;;;15.40;6.93;;;-1.40;90.80;;;;;;5034974;28;20131;-78
2023/01/21 07:10:55;;;;;;;14.63;7.43;;;-1.40;90.70;;;;;;5022158;28;20116;-78
2023/01/21 07:13:20;;;;;;;12.73;7.20;;;-1.40;90.70;;;;;;5019447;28;20448;-78
2023/01/21 07:15:46;;;;;;;13.02;7.15;;;-1.40;90.70;;;;;;5011868;28;20045;-80
2023/01/21 07:18:11;;;;;;;19.02;8.45;;;-1.40;90.70;;;;;;5003658;28;20136;-79
2023/01/21 07:20:39;;;;;;;20.77;8.60;;;-1.40;90.70;;;;;;5016958;28;20077;-79
2023/01/21 07:23:04;;;;;;;16.52;8.40;;;-1.40;90.70;;;;;;5028698;28;20643;-78
2023/01/21 07:25:31;;;;;;;16.35;7.97;;;-1.40;90.70;;;;;;5035965;28;20131;-77
2023/01/21 07:27:56;;;;;;;16.42;8.00;;;-1.40;90.70;;;;;;5042356;28;20033;-79
2023/01/21 07:30:22;;;;;;;17.38;7.05;;;-1.50;91.00;;;;;;5024296;28;20523;-80
2023/01/21 07:32:47;;;;;;;12.25;6.82;;;-1.50;90.60;;;;;;5040731;28;20048;-79
2023/01/21 07:35:13;;;;;;;32.80;15.75;;;-1.50;90.60;;;;;;5042509;28;20036;-71
2023/01/21 07:37:39;;;;;;;31.38;13.45;;;-1.50;90.60;;;;;;5042721;28;20039;-78
2023/01/21 07:40:05;;;;;;;33.20;21.83;;;-1.50;90.70;;;;;;5025231;28;20128;-79
2023/01/21 07:42:31;;;;;;;28.92;14.57;;;-1.50;90.70;;;;;;5002857;28;20116;-78
2023/01/21 07:44:58;;;;;;;27.30;12.13;;;-1.50;90.60;;;;;;5046598;28;20096;-80
2023/01/21 07:47:24;;;;;;;15.98;9.40;;;-1.50;90.60;;;;;;5038452;28;20025;-78
2023/01/21 07:49:49;;;;;;;22.15;10.50;;;-1.50;90.70;;;;;;5048227;28;20082;-78
2023/01/21 07:52:15;;;;;;;21.23;9.82;;;-1.50;91.10;;;;;;5045564;28;20824;-80
2023/01/21 07:54:40;;;;;;;18.65;9.27;;;-1.50;90.70;;;;;;5025852;28;20057;-80
2023/01/21 07:57:06;;;;;;;23.73;11.80;;;-1.40;90.80;;;;;;5048462;28;20110;-80
2023/01/21 07:59:31;;;;;;;18.02;9.68;;;-1.40;90.80;;;;;;5013987;28;20066;-80
2023/01/21 08:01:57;;;;;;;21.30;7.80;;;-1.50;90.70;;;;;;5026015;28;20036;-79
2023/01/21 08:04:24;;;;;;;15.43;7.95;;;-1.40;90.70;;;;;;5006112;28;20029;-80
2023/01/21 08:06:51;;;;;;;16.80;8.57;;;-1.50;90.70;;;;;;5044733;28;20071;-80
2023/01/21 08:09:17;;;;;;;18.08;9.10;;;-1.50;90.70;;;;;;5051820;28;20431;-80
2023/01/21 08:11:43;;;;;;;16.83;8.13;;;-1.40;90.80;;;;;;5049739;28;20043;-80
2023/01/21 08:14:08;;;;;;;15.18;7.97;;;-1.40;90.80;;;;;;5050779;28;20047;-78
2023/01/21 08:16:34;;;;;;;17.25;8.25;;;-1.40;90.80;;;;;;5047566;28;20660;-82
2023/01/21 08:18:59;;;;;;;15.75;8.77;;;-1.30;90.80;;;;;;5051849;28;20037;-78
2023/01/21 08:21:25;;;;;;;16.60;8.23;;;-1.30;90.80;;;;;;5055468;28;20044;-81
2023/01/21 08:23:50;;;;;;;24.38;10.82;;;-1.30;90.80;;;;;;5037253;28;20056;-80
2023/01/21 08:26:16;;;;;;;19.70;9.55;;;-1.20;90.90;;;;;;5032363;28;20029;-80
2023/01/21 08:28:41;;;;;;;19.35;9.45;;;-1.20;90.90;;;;;;5021650;28;20032;-81
2023/01/21 08:31:10;;;;;;;23.08;10.50;;;-1.20;90.90;;;;;;5035972;28;20045;-80
2023/01/21 08:33:36;;;;;;;23.67;10.60;;;-1.10;90.90;;;;;;5039040;28;20040;-82
2023/01/21 08:36:02;;;;;;;24.38;12.13;;;-1.10;90.90;;;;;;5051906;28;20029;-82
2023/01/21 08:38:28;;;;;;;21.98;11.25;;;-1.00;91.00;;;;;;5058006;28;20048;-82
2023/01/21 08:40:55;;;;;;;28.55;10.70;;;-1.00;91.00;;;;;;5033317;28;20090;-81
2023/01/21 08:43:24;;;;;;;25.92;11.10;;;-0.90;91.00;;;;;;5036895;28;20049;-81
2023/01/21 08:45:50;;;;;;;31.98;12.98;;;-0.90;91.00;;;;;;5055369;28;20041;-81
2023/01/21 08:48:15;;;;;;;61.97;12.23;;;-0.90;91.00;;;;;;5054833;28;20135;-81
2023/01/21 08:50:41;;;;;;;27.92;10.48;;;-0.80;91.00;;;;;;5036289;28;20064;-78
2023/01/21 08:53:08;;;;;;;32.88;15.50;;;-0.80;91.00;;;;;;5052463;28;20045;-81
2023/01/21 08:55:34;;;;;;;65.85;13.70;;;-0.70;91.00;;;;;;5053301;28;20044;-81
2023/01/21 08:58:00;;;;;;;30.23;14.10;;;-0.70;91.00;;;;;;5023472;28;20041;-81
2023/01/21 09:00:25;;;;;;;29.75;13.32;;;-0.60;91.00;;;;;;5021486;28;20036;-81
2023/01/21 09:02:51;;;;;;;24.02;10.02;;;-0.60;91.40;;;;;;5034894;28;20126;-81
2023/01/21 09:05:17;;;;;;;39.67;12.77;;;-0.50;91.00;;;;;;5026317;28;20033;-80
2023/01/21 09:07:43;;;;;;;51.33;13.00;;;-0.50;91.00;;;;;;5018315;28;20053;-82
2023/01/21 09:10:09;;;;;;;32.22;10.65;;;-0.50;91.00;;;;;;5020164;28;20017;-83
2023/01/21 09:12:37;;;;;;;26.23;10.55;;;-0.40;91.00;;;;;;5035745;28;20041;-81
2023/01/21 09:15:03;;;;;;;23.05;10.73;;;-0.40;91.00;;;;;;5050406;28;20048;-82
2023/01/21 09:17:29;;;;;;;24.35;11.07;;;-0.40;90.90;;;;;;5048895;28;20571;-82
2023/01/21 09:19:54;;;;;;;24.65;11.18;;;-0.30;91.00;;;;;;5028617;28;20150;-82
2023/01/21 09:22:20;;;;;;;27.08;11.20;;;-0.30;90.90;;;;;;5035898;28;20037;-80
2023/01/21 09:24:45;;;;;;;20.25;10.85;;;-0.30;90.90;;;;;;5039067;28;20024;-81
2023/01/21 09:27:11;;;;;;;28.83;10.65;;;-0.30;90.90;;;;;;5017259;28;20063;-80
2023/01/21 09:29:36;;;;;;;22.67;10.60;;;-0.20;90.90;;;;;;5032267;28;20029;-82
2023/01/21 09:32:04;;;;;;;20.40;11.07;;;-0.20;90.90;;;;;;5039373;28;20073;-81
2023/01/21 09:34:29;;;;;;;20.10;10.65;;;-0.20;90.90;;;;;;5040941;28;20044;-79
2023/01/21 09:36:55;;;;;;;19.17;10.05;;;-0.10;91.00;;;;;;5053261;28;20041;-81
2023/01/21 09:39:20;;;;;;;17.92;10.15;;;-0.10;90.90;;;;;;5050116;28;20067;-82
2023/01/21 09:41:51;;;;;;;21.08;11.93;;;-0.10;90.90;;;;;;5059530;28;20037;-81
2023/01/21 09:44:35;;;;;;;17.70;9.90;;;-0.10;90.90;;;;;;5036558;28;20040;-80
2023/01/21 09:47:32;;;;;;;22.65;9.90;;;0.00;90.90;;;;;;5057826;28;20037;-80
2023/01/21 09:50:15;;;;;;;23.98;10.80;;;0.00;90.90;;;;;;5056566;28;20037;-80
2023/01/21 09:52:45;;;;;;;26.13;12.25;;;0.00;90.80;;;;;;5025120;28;20100;-80
2023/01/21 09:55:28;;;;;;;24.33;12.40;;;0.00;90.80;;;;;;5037738;28;20553;-81
2023/01/21 09:58:05;;;;;;;22.95;10.90;;;0.10;90.80;;;;;;5037191;28;20050;-81
2023/01/21 10:00:49;;;;;;;16.40;8.82;;;0.10;90.80;;;;;;5047606;28;20108;-81
2023/01/21 10:03:36;;;;;;;24.10;11.40;;;0.10;90.80;;;;;;5051686;28;20037;-80
2023/01/21 10:06:22;;;;;;;39.60;16.08;;;0.10;90.80;;;;;;5056361;28;20409;-81
2023/01/21 10:09:00;;;;;;;33.28;15.27;;;0.20;90.80;;;;;;5053819;28;20049;-81
2023/01/21 10:11:54;;;;;;;27.63;14.10;;;0.20;90.80;;;;;;5045552;28;20137;-83
2023/01/21 10:14:42;;;;;;;22.25;12.00;;;0.20;90.70;;;;;;5050687;28;20033;-80
2023/01/21 10:17:28;;;;;;;24.52;11.00;;;0.30;91.10;;;;;;5057706;28;20041;-81
2023/01/21 10:20:03;;;;;;;23.08;11.88;;;0.30;90.70;;;;;;5052244;28;20056;-81
2023/01/21 10:22:28;;;;;;;24.63;10.90;;;0.30;90.70;;;;;;5047996;28;20083;-81
2023/01/21 10:25:00;;;;;;;23.55;11.10;;;0.30;90.70;;;;;;5055791;28;20312;-81
2023/01/21 10:27:26;;;;;;;21.25;9.77;;;0.30;90.70;;;;;;5034901;28;20051;-78
2023/01/21 10:30:14;;;;;;;22.48;11.93;;;0.30;90.70;;;;;;5040497;28;20332;-78
2023/01/21 10:32:40;;;;;;;25.65;11.40;;;0.30;90.60;;;;;;5053172;28;20100;-80
2023/01/21 10:35:14;;;;;;;23.60;11.65;;;0.40;90.70;;;;;;5048762;28;20063;-78
2023/01/21 10:37:50;;;;;;;25.85;12.02;;;0.40;90.60;;;;;;5052061;28;20115;-81
2023/01/21 10:40:42;;;;;;;23.00;12.00;;;0.40;90.60;;;;;;5053567;28;20045;-79
2023/01/21 10:43:14;;;;;;;20.52;11.02;;;0.40;90.60;;;;;;5052679;28;20037;-81
2023/01/21 10:45:57;;;;;;;20.20;11.27;;;0.40;90.60;;;;;;5047848;28;20044;-80
2023/01/21 10:48:23;;;;;;;23.05;12.05;;;0.50;90.60;;;;;;5045639;28;20051;-78
2023/01/21 10:51:03;;;;;;;25.33;11.85;;;0.50;90.60;;;;;;5047189;28;20053;-79
2023/01/21 10:53:55;;;;;;;30.65;13.80;;;0.60;90.60;;;;;;5051159;28;20037;-79
2023/01/21 10:56:41;;;;;;;21.98;11.27;;;0.60;90.60;;;;;;5032390;28;20064;-80
2023/01/21 10:59:10;;;;;;;22.95;10.52;;;0.60;90.50;;;;;;5031442;28;20037;-81
2023/01/21 11:01:39;;;;;;;24.70;11.20;;;0.70;90.60;;;;;;5032040;28;20033;-79
2023/01/21 11:04:10;;;;;;;23.80;12.02;;;0.60;90.50;;;;;;5033617;28;20036;-80
2023/01/21 11:06:36;;;;;;;28.33;14.23;;;0.70;90.50;;;;;;5032423;28;20040;-78
2023/01/21 11:09:02;;;;;;;20.30;11.00;;;0.70;90.90;;;;;;5034112;28;20037;-78
2023/01/21 11:11:33;;;;;;;35.60;20.67;;;0.70;90.50;;;;;;5030711;28;20032;-79
2023/01/21 11:13:59;;;;;;;23.63;11.55;;;0.80;90.50;;;;;;5048693;28;20432;-81
2023/01/21 11:16:46;;;;;;;18.63;10.70;;;0.80;90.50;;;;;;5034590;28;20025;-79
2023/01/21 11:19:14;;;;;;;17.17;8.90;;;0.80;90.40;;;;;;5048330;28;20044;-80
2023/01/21 11:21:40;;;;;;;20.38;8.93;;;0.80;90.40;;;;;;5036794;28;20032;-80
2023/01/21 11:24:21;;;;;;;17.30;9.35;;;0.80;90.40;;;;;;5052175;28;20037;-81
2023/01/21 11:26:54;;;;;;;16.67;8.20;;;0.80;90.40;;;;;;5027192;28;20041;-79
2023/01/21 11:29:21;;;;;;;15.60;8.18;;;0.90;90.50;;;;;;5047801;28;20028;-80
2023/01/21 11:31:52;;;;;;;16.45;8.30;;;0.90;90.50;;;;;;5047181;28;20032;-78
2023/01/21 11:34:18;;;;;;;13.30;7.18;;;0.90;90.40;;;;;;5047790;28;20040;-80
2023/01/21 11:36:56;;;;;;;13.95;7.63;;;0.90;90.40;;;;;;5041867;28;20040;-82
2023/01/21 11:39:25;;;;;;;15.63;7.50;;;1.00;90.40;;;;;;5048780;28;20082;-79
2023/01/21 11:41:55;;;;;;;13.75;7.22;;;1.00;90.40;;;;;;5032237;28;20045;-78
2023/01/21 11:44:20;;;;;;;13.88;6.82;;;1.00;90.30;;;;;;5046433;28;20044;-79
2023/01/21 11:46:46;;;;;;;15.13;7.35;;;1.00;90.30;;;;;;5042261;28;20046;-80
2023/01/21 11:49:21;;;;;;;22.92;8.27;;;1.00;90.30;;;;;;5044224;28;20029;-79
2023/01/21 11:51:47;;;;;;;13.70;7.10;;;1.00;90.20;;;;;;5032447;28;20045;-79
2023/01/21 11:54:20;;;;;;;15.40;7.72;;;1.00;90.20;;;;;;5028441;28;20072;-80
2023/01/21 11:57:00;;;;;;;15.30;8.35;;;1.10;90.20;;;;;;5047998;28;20071;-80
2023/01/21 11:59:33;;;;;;;13.38;7.07;;;1.10;90.10;;;;;;5043798;28;20086;-79
2023/01/21 12:02:11;;;;;;;15.35;7.00;;;1.10;90.10;;;;;;5029101;28;20040;-79
2023/01/21 12:04:41;;;;;;;13.43;6.57;;;1.10;90.10;;;;;;5047688;28;20286;-80
2023/01/21 12:07:06;;;;;;;13.48;6.57;;;1.10;90.10;;;;;;5027705;28;20025;-78
2023/01/21 12:09:32;;;;;;;15.50;7.18;;;1.10;90.10;;;;;;5025390;28;21198;-79
2023/01/21 12:12:25;;;;;;;13.52;6.68;;;1.20;90.10;;;;;;5030828;28;20127;-79
2023/01/21 12:14:52;;;;;;;14.48;6.90;;;1.20;90.10;;;;;;5031104;28;20059;-79
2023/01/21 12:17:26;;;;;;;15.98;8.10;;;1.20;90.10;;;;;;5046530;28;20063;-80
2023/01/21 12:20:10;;;;;;;13.88;7.20;;;1.20;90.00;;;;;;5028830;28;20045;-80
2023/01/21 12:22:39;;;;;;;12.77;7.55;;;1.20;90.00;;;;;;5037074;28;20061;-80
2023/01/21 12:25:39;;;;;;;17.77;7.68;;;1.30;90.00;;;;;;5044584;28;20099;-79
2023/01/21 12:28:08;;;;;;;12.52;6.75;;;1.30;90.20;;;;;;5029394;28;20036;-80
2023/01/21 12:30:47;;;;;;;14.90;7.30;;;1.30;90.00;;;;;;5044975;28;20025;-78
2023/01/21 12:33:17;;;;;;;11.80;7.35;;;1.30;89.80;;;;;;5027114;28;20076;-79
2023/01/21 12:35:52;;;;;;;11.10;6.53;;;1.30;89.80;;;;;;5018626;28;20041;-78
2023/01/21 12:38:21;;;;;;;12.30;6.22;;;1.30;89.70;;;;;;5037324;28;20047;-82
2023/01/21 12:41:04;;;;;;;13.57;6.18;;;1.40;89.70;;;;;;5025664;28;20043;-81
2023/01/21 12:43:40;;;;;;;11.40;6.20;;;1.40;89.60;;;;;;5048548;28;20037;-80
2023/01/21 12:46:23;;;;;;;11.75;6.90;;;1.40;90.10;;;;;;5032467;28;20071;-80
2023/01/21 12:48:56;;;;;;;13.88;6.75;;;1.40;89.40;;;;;;5022986;28;20035;-81
2023/01/21 12:51:26;;;;;;;11.75;6.03;;;1.40;89.50;;;;;;5017675;28;20069;-79
2023/01/21 12:54:10;;;;;;;15.65;8.10;;;1.40;89.50;;;;;;5022957;28;20043;-80